Time;durP1;ratioP1;P1;durP2;ratioP2;P2;SDS_P1;SDS_P2;PMS_P1;PMS_P2;Temp;Humidity;BMP_temperature;BMP_pressure;BME280_temperature;BME280_humidity;BME280_pressure;Samples;Min_cycle;Max_cycle;Signal;HPM_P1;HPM_P2
2021/07/07 00:00:22;;;;;;;4.23;1.73;;;15.70;1.00;;;;;;5042665;28;20449;-73
2021/07/07 00:02:48;;;;;;;4.70;2.17;;;15.60;1.00;;;;;;5045648;28;21015;-73
2021/07/07 00:05:17;;;;;;;3.50;1.70;;;15.50;1.00;;;;;;5048008;28;20488;-73
2021/07/07 00:07:43;;;;;;;5.10;2.07;;;15.50;1.00;;;;;;5042988;28;20474;-72
2021/07/07 00:10:13;;;;;;;5.13;1.87;;;15.50;1.00;;;;;;5050931;28;20447;-72
2021/07/07 00:12:39;;;;;;;8.83;2.20;;;15.50;1.00;;;;;;5043062;28;20491;-72
2021/07/07 00:15:09;;;;;;;4.67;2.67;;;15.60;1.00;;;;;;5039576;28;20484;-72
2021/07/07 00:17:36;;;;;;;3.20;1.90;;;15.60;1.00;;;;;;5048205;28;20946;-73
2021/07/07 00:20:05;;;;;;;8.87;2.27;;;15.60;1.00;;;;;;5047014;28;20500;-72
2021/07/07 00:22:31;;;;;;;8.57;2.00;;;15.60;1.00;;;;;;5047975;28;20468;-72
2021/07/07 00:24:57;;;;;;;3.47;1.63;;;15.50;1.00;;;;;;5051799;28;20957;-72
2021/07/07 00:27:24;;;;;;;5.40;2.27;;;15.50;1.00;;;;;;5044357;28;20396;-72
2021/07/07 00:29:51;;;;;;;4.20;1.97;;;15.50;1.00;;;;;;5049985;28;20234;-72
2021/07/07 00:32:18;;;;;;;5.53;2.00;;;15.50;1.00;;;;;;5048275;28;20441;-72
2021/07/07 00:34:44;;;;;;;7.00;2.20;;;15.50;1.00;;;;;;5055627;28;20475;-72
2021/07/07 00:37:10;;;;;;;4.90;2.03;;;15.60;1.00;;;;;;5050434;28;20944;-72
2021/07/07 00:39:36;;;;;;;2.83;1.70;;;15.60;1.00;;;;;;5057163;28;20484;-72
2021/07/07 00:42:02;;;;;;;10.73;2.90;;;15.70;1.00;;;;;;5049108;28;20190;-72
2021/07/07 00:44:27;;;;;;;3.77;2.10;;;15.70;1.00;;;;;;5054411;28;20512;-72
2021/07/07 00:46:53;;;;;;;3.10;2.10;;;15.70;1.00;;;;;;5043851;28;20846;-72
2021/07/07 00:49:19;;;;;;;3.73;2.10;;;15.60;1.00;;;;;;5043628;28;20565;-72
2021/07/07 00:51:45;;;;;;;5.93;2.33;;;15.60;1.00;;;;;;5052780;28;20182;-72
2021/07/07 00:54:17;;;;;;;5.17;2.10;;;15.50;1.00;;;;;;5052544;28;20450;-72
2021/07/07 00:56:43;;;;;;;7.00;2.07;;;15.50;1.00;;;;;;5054355;28;20254;-72
2021/07/07 00:59:09;;;;;;;6.93;2.00;;;15.50;1.00;;;;;;5040213;28;20441;-72
2021/07/07 01:01:39;;;;;;;3.67;2.07;;;15.60;1.00;;;;;;5041748;28;20567;-72
2021/07/07 01:04:04;;;;;;;9.80;2.73;;;15.60;1.00;;;;;;5048077;28;20547;-73
2021/07/07 01:06:30;;;;;;;4.00;1.63;;;15.60;1.00;;;;;;5046049;28;20549;-73
2021/07/07 01:08:55;;;;;;;5.47;2.00;;;15.60;1.00;;;;;;5047368;28;20218;-73
2021/07/07 01:11:21;;;;;;;4.80;1.80;;;15.70;1.00;;;;;;5050346;28;20225;-73
2021/07/07 01:13:47;;;;;;;4.63;2.17;;;15.70;1.00;;;;;;5049019;28;20190;-73
2021/07/07 01:16:13;;;;;;;4.30;2.13;;;15.70;1.00;;;;;;5037671;28;20220;-73
2021/07/07 01:18:38;;;;;;;10.70;2.30;;;15.60;1.00;;;;;;5045806;28;20265;-73
2021/07/07 01:21:04;;;;;;;4.60;1.70;;;15.50;1.00;;;;;;5046357;28;20209;-73
2021/07/07 01:23:30;;;;;;;6.07;2.43;;;15.50;1.00;;;;;;5051990;28;20802;-73
2021/07/07 01:25:56;;;;;;;6.57;2.00;;;15.40;1.00;;;;;;5047357;28;20193;-73
2021/07/07 01:28:22;;;;;;;9.93;2.47;;;15.50;1.00;;;;;;5042047;28;20476;-73
2021/07/07 01:30:48;;;;;;;5.00;1.83;;;15.50;1.00;;;;;;5043586;28;20732;-73
2021/07/07 01:33:14;;;;;;;8.10;2.43;;;15.60;1.00;;;;;;5049396;28;20483;-73
2021/07/07 01:35:40;;;;;;;6.50;2.17;;;15.60;1.00;;;;;;5050614;28;20286;-73
2021/07/07 01:38:05;;;;;;;5.40;2.23;;;15.60;1.00;;;;;;5042816;28;20187;-73
2021/07/07 01:40:31;;;;;;;4.53;2.33;;;15.50;1.00;;;;;;5046481;28;20603;-73
2021/07/07 01:42:58;;;;;;;4.80;2.30;;;15.40;1.00;;;;;;5052007;28;20186;-73
2021/07/07 01:45:25;;;;;;;3.60;2.03;;;15.20;1.00;;;;;;5046875;28;20987;-73
2021/07/07 01:47:52;;;;;;;10.27;3.20;;;15.20;1.00;;;;;;5047140;28;20543;-73
2021/07/07 01:50:19;;;;;;;3.30;2.47;;;15.20;1.00;;;;;;5052032;28;20461;-73
2021/07/07 01:52:44;;;;;;;6.27;2.77;;;15.20;1.00;;;;;;5045699;28;20445;-73
2021/07/07 01:55:15;;;;;;;6.27;2.60;;;15.20;1.00;;;;;;5050361;28;20976;-73
2021/07/07 01:57:45;;;;;;;7.57;2.57;;;15.30;1.00;;;;;;5046584;28;20583;-73
2021/07/07 02:00:32;;;;;;;9.73;2.70;;;15.20;1.00;;;;;;5046211;28;20885;-73
2021/07/07 02:02:58;;;;;;;4.03;2.20;;;15.20;1.00;;;;;;5048620;28;20453;-73
2021/07/07 02:05:28;;;;;;;10.83;2.37;;;15.20;1.00;;;;;;5054014;28;20997;-73
2021/07/07 02:07:55;;;;;;;8.80;2.37;;;15.20;1.00;;;;;;5032763;28;20482;-74
2021/07/07 02:10:21;;;;;;;10.23;2.63;;;15.30;1.00;;;;;;5044455;28;20451;-73
2021/07/07 02:12:48;;;;;;;6.80;2.60;;;15.30;1.00;;;;;;5048582;28;20450;-73
2021/07/07 02:15:20;;;;;;;8.20;2.60;;;15.30;1.00;;;;;;5042488;28;20539;-72
2021/07/07 02:17:46;;;;;;;7.60;2.50;;;15.30;1.00;;;;;;5044896;28;20444;-73
2021/07/07 02:20:13;;;;;;;7.40;2.77;;;15.20;1.00;;;;;;5046540;28;20456;-73
2021/07/07 02:22:40;;;;;;;6.57;2.67;;;15.20;1.00;;;;;;5048782;28;20893;-73
2021/07/07 02:25:12;;;;;;;9.23;2.60;;;15.20;1.00;;;;;;5048083;28;20491;-72
2021/07/07 02:27:38;;;;;;;5.47;2.50;;;15.20;1.00;;;;;;5053215;28;20469;-72
2021/07/07 02:30:07;;;;;;;5.63;2.67;;;15.10;1.00;;;;;;5047891;28;20471;-73
2021/07/07 02:32:33;;;;;;;7.10;2.63;;;15.10;1.00;;;;;;5047956;28;20448;-73
2021/07/07 02:34:59;;;;;;;6.00;2.70;;;15.00;1.00;;;;;;5054793;28;20474;-72
2021/07/07 02:37:24;;;;;;;7.10;2.60;;;14.90;1.00;;;;;;5050170;28;20237;-73
2021/07/07 02:39:50;;;;;;;7.40;2.87;;;14.90;1.00;;;;;;5048274;28;20273;-72
2021/07/07 02:42:16;;;;;;;5.53;2.57;;;14.90;1.00;;;;;;5048361;28;20764;-73
2021/07/07 02:44:43;;;;;;;4.63;2.70;;;14.90;1.00;;;;;;5057343;28;20195;-74
2021/07/07 02:47:09;;;;;;;9.40;2.77;;;14.90;1.00;;;;;;5049096;28;20574;-73
2021/07/07 02:49:35;;;;;;;4.47;2.30;;;14.90;1.00;;;;;;5049407;28;20780;-73
2021/07/07 02:52:01;;;;;;;13.03;3.37;;;14.80;1.00;;;;;;5054098;28;20410;-73
2021/07/07 02:54:26;;;;;;;13.30;2.70;;;14.90;1.00;;;;;;5048740;28;20455;-73
2021/07/07 02:56:52;;;;;;;13.70;2.50;;;14.80;1.00;;;;;;5050117;28;20174;-73
2021/07/07 02:59:17;;;;;;;8.20;3.20;;;14.80;1.00;;;;;;5046601;28;20545;-73
2021/07/07 03:01:43;;;;;;;6.83;2.43;;;14.80;1.00;;;;;;5043582;28;20218;-73
2021/07/07 03:04:08;;;;;;;9.57;2.90;;;14.80;1.00;;;;;;5047525;28;20696;-74
2021/07/07 03:06:34;;;;;;;8.70;2.70;;;14.80;1.00;;;;;;5049915;28;20618;-73
2021/07/07 03:09:02;;;;;;;7.70;2.57;;;14.80;1.00;;;;;;5048490;28;20221;-73
2021/07/07 03:11:28;;;;;;;5.53;2.37;;;14.70;1.00;;;;;;5048664;28;20697;-72
2021/07/07 03:13:53;;;;;;;7.33;2.50;;;14.80;1.00;;;;;;5051588;28;20451;-73
2021/07/07 03:16:19;;;;;;;7.47;2.73;;;14.80;1.00;;;;;;5044829;28;20185;-73
2021/07/07 03:18:45;;;;;;;6.60;2.43;;;14.80;1.00;;;;;;5047946;28;20720;-73
2021/07/07 03:21:11;;;;;;;6.10;2.47;;;14.80;1.00;;;;;;5047188;28;20571;-73
2021/07/07 03:23:37;;;;;;;9.67;2.90;;;14.80;1.00;;;;;;5049520;28;20188;-72
2021/07/07 03:26:03;;;;;;;7.70;3.10;;;14.80;1.00;;;;;;5040822;28;20461;-72
2021/07/07 03:28:28;;;;;;;7.47;3.00;;;14.80;1.00;;;;;;5048834;28;20606;-73
2021/07/07 03:30:54;;;;;;;4.60;2.60;;;14.80;1.00;;;;;;5044618;28;20205;-73
2021/07/07 03:33:21;;;;;;;11.43;2.83;;;14.80;1.00;;;;;;5043071;28;20274;-73
2021/07/07 03:35:47;;;;;;;8.47;3.00;;;14.80;1.00;;;;;;5046709;28;20986;-73
2021/07/07 03:38:13;;;;;;;8.03;3.70;;;14.80;1.00;;;;;;5049324;28;20449;-73
2021/07/07 03:40:39;;;;;;;6.57;2.60;;;14.70;1.00;;;;;;5046875;28;20796;-72
2021/07/07 03:43:05;;;;;;;5.47;2.63;;;14.70;1.00;;;;;;5047186;28;20457;-73
2021/07/07 03:45:31;;;;;;;10.00;2.90;;;14.70;1.00;;;;;;5046927;28;20821;-73
2021/07/07 03:47:57;;;;;;;6.10;2.93;;;14.70;1.00;;;;;;5037610;28;20818;-73
2021/07/07 03:50:23;;;;;;;5.90;2.20;;;14.70;1.00;;;;;;5051201;28;20467;-73
2021/07/07 03:52:49;;;;;;;4.83;2.70;;;14.70;1.00;;;;;;5038005;28;20178;-73
2021/07/07 03:55:20;;;;;;;10.80;3.27;;;14.70;1.00;;;;;;5044420;28;20441;-73
2021/07/07 03:57:46;;;;;;;6.03;2.87;;;14.70;1.00;;;;;;5043614;28;20488;-73
2021/07/07 04:00:14;;;;;;;5.20;1.97;;;14.70;1.00;;;;;;5046851;28;20536;-72
2021/07/07 04:02:40;;;;;;;8.40;2.83;;;14.60;1.00;;;;;;5043157;28;20451;-73
2021/07/07 04:05:09;;;;;;;6.00;2.53;;;14.70;1.00;;;;;;5052841;28;20866;-73
2021/07/07 04:07:34;;;;;;;6.43;3.93;;;14.70;1.00;;;;;;5044069;28;20489;-73
2021/07/07 04:10:01;;;;;;;4.63;2.13;;;14.70;1.00;;;;;;5034934;28;20777;-73
2021/07/07 04:12:26;;;;;;;7.93;2.67;;;14.70;1.00;;;;;;5037537;28;20468;-73
2021/07/07 04:14:52;;;;;;;6.33;2.17;;;14.60;1.00;;;;;;5045186;28;20446;-73
2021/07/07 04:17:18;;;;;;;5.97;2.20;;;14.60;1.00;;;;;;5028313;28;20182;-73
2021/07/07 04:19:44;;;;;;;5.07;2.77;;;14.60;1.00;;;;;;5044442;28;20186;-72
2021/07/07 04:22:10;;;;;;;10.80;2.90;;;14.70;1.00;;;;;;5045698;28;20268;-73
2021/07/07 04:24:35;;;;;;;4.50;2.67;;;14.70;1.00;;;;;;5032949;28;20663;-73
2021/07/07 04:27:01;;;;;;;4.60;2.47;;;14.70;1.00;;;;;;5042509;28;20813;-73
2021/07/07 04:29:27;;;;;;;11.00;2.83;;;14.70;1.00;;;;;;5038412;28;20207;-72
2021/07/07 04:31:56;;;;;;;8.20;2.53;;;14.80;1.00;;;;;;5041697;28;20968;-72
2021/07/07 04:34:23;;;;;;;6.93;2.80;;;14.80;1.00;;;;;;5042703;28;20196;-72
2021/07/07 04:36:49;;;;;;;6.80;2.70;;;14.80;1.00;;;;;;5048345;28;20580;-73
2021/07/07 04:39:14;;;;;;;6.53;2.37;;;14.80;1.00;;;;;;5040962;28;20759;-72
2021/07/07 04:41:41;;;;;;;7.90;2.70;;;14.90;1.00;;;;;;5040432;28;20784;-73
2021/07/07 04:44:06;;;;;;;10.47;2.53;;;14.90;1.00;;;;;;5037144;28;20289;-72
2021/07/07 04:46:32;;;;;;;4.97;2.20;;;14.90;1.00;;;;;;5039139;28;20440;-72
2021/07/07 04:48:58;;;;;;;6.23;2.40;;;14.90;1.00;;;;;;5044890;28;20209;-73
2021/07/07 04:51:24;;;;;;;10.60;2.27;;;14.90;1.00;;;;;;5045760;28;20464;-72
2021/07/07 04:53:49;;;;;;;7.70;2.33;;;15.00;1.00;;;;;;5046892;28;20181;-72
2021/07/07 04:56:15;;;;;;;9.60;2.37;;;15.00;1.00;;;;;;5043594;28;20219;-72
2021/07/07 04:58:41;;;;;;;3.87;2.47;;;15.00;1.00;;;;;;5051671;28;20196;-73
2021/07/07 05:01:07;;;;;;;8.13;2.50;;;15.20;1.00;;;;;;5041947;28;20192;-72
2021/07/07 05:03:34;;;;;;;8.47;2.60;;;15.20;1.00;;;;;;5040818;28;20457;-72
2021/07/07 05:05:59;;;;;;;7.23;2.13;;;15.30;1.00;;;;;;5054794;28;20466;-72
2021/07/07 05:08:25;;;;;;;7.50;2.83;;;15.40;1.00;;;;;;5037097;28;20504;-73
2021/07/07 05:10:51;;;;;;;6.00;2.30;;;15.50;1.00;;;;;;5042626;28;20183;-73
2021/07/07 05:13:18;;;;;;;5.17;2.53;;;15.60;1.00;;;;;;5031932;28;20485;-72
2021/07/07 05:15:46;;;;;;;4.73;2.47;;;15.60;1.00;;;;;;5047364;28;20532;-73
2021/07/07 05:18:11;;;;;;;6.73;2.60;;;15.70;1.00;;;;;;5039092;28;20444;-73
2021/07/07 05:20:37;;;;;;;9.27;2.63;;;15.70;1.00;;;;;;5041280;28;21047;-72
2021/07/07 05:23:06;;;;;;;8.63;2.23;;;15.80;1.00;;;;;;5052585;28;20211;-73
2021/07/07 05:25:33;;;;;;;5.10;2.10;;;15.80;1.00;;;;;;5044822;28;20241;-73
2021/07/07 05:28:01;;;;;;;10.37;2.23;;;15.90;1.00;;;;;;5053951;28;20479;-73
2021/07/07 05:30:27;;;;;;;6.67;2.33;;;16.00;1.00;;;;;;5040695;28;20447;-72
2021/07/07 05:32:55;;;;;;;5.00;2.50;;;16.10;1.00;;;;;;5051078;28;20451;-73
2021/07/07 05:35:20;;;;;;;4.23;2.27;;;16.10;1.00;;;;;;5050091;28;20566;-73
2021/07/07 05:37:46;;;;;;;5.70;2.33;;;16.20;1.00;;;;;;5039665;28;20502;-72
2021/07/07 05:40:17;;;;;;;10.83;3.20;;;16.20;1.00;;;;;;5045839;28;20190;-73
2021/07/07 05:42:45;;;;;;;4.20;2.07;;;16.30;1.00;;;;;;5057435;28;21263;-72
2021/07/07 05:45:11;;;;;;;5.00;2.83;;;16.30;1.00;;;;;;5044098;28;20443;-73
2021/07/07 05:47:37;;;;;;;3.70;2.30;;;16.40;1.00;;;;;;5041641;28;20469;-72
2021/07/07 05:50:03;;;;;;;5.40;2.30;;;16.50;1.00;;;;;;5052883;28;20502;-72
2021/07/07 05:52:29;;;;;;;6.33;2.40;;;16.60;1.00;;;;;;5056011;28;20183;-72
2021/07/07 05:54:55;;;;;;;9.70;2.23;;;16.60;1.00;;;;;;5054143;28;21347;-72
2021/07/07 05:57:36;;;;;;;11.23;2.70;;;16.70;1.00;;;;;;5049039;28;20218;-72
2021/07/07 06:00:04;;;;;;;6.47;2.30;;;16.70;1.00;;;;;;5049730;28;21173;-74
2021/07/07 06:02:31;;;;;;;5.83;2.50;;;16.80;1.00;;;;;;5043693;28;20860;-73
2021/07/07 06:04:56;;;;;;;7.70;2.53;;;16.90;1.00;;;;;;5043203;28;20514;-73
2021/07/07 06:07:22;;;;;;;4.77;2.47;;;16.90;1.00;;;;;;5039943;28;20206;-73
2021/07/07 06:09:48;;;;;;;4.70;2.47;;;17.10;1.00;;;;;;5047434;28;20190;-72
2021/07/07 06:12:13;;;;;;;12.93;2.13;;;17.20;1.00;;;;;;5051207;28;20193;-73
2021/07/07 06:14:39;;;;;;;10.40;2.40;;;17.20;1.00;;;;;;5057269;28;20182;-73
2021/07/07 06:17:05;;;;;;;5.27;2.07;;;17.40;1.00;;;;;;5048854;28;20704;-72
2021/07/07 06:19:30;;;;;;;9.20;2.50;;;17.50;1.00;;;;;;5046057;28;20236;-72
2021/07/07 06:21:58;;;;;;;5.77;2.73;;;17.60;1.00;;;;;;5046945;28;20256;-72
2021/07/07 06:24:24;;;;;;;11.73;2.27;;;17.70;1.00;;;;;;5044934;28;20352;-72
2021/07/07 06:26:50;;;;;;;6.53;2.67;;;17.80;1.00;;;;;;5052842;28;20448;-72
2021/07/07 06:29:17;;;;;;;3.40;2.30;;;18.00;1.00;;;;;;5047693;28;20212;-73
2021/07/07 06:31:43;;;;;;;7.20;3.07;;;18.10;1.00;;;;;;5042716;28;20194;-73
2021/07/07 06:34:09;;;;;;;4.93;2.00;;;18.20;1.00;;;;;;5041832;28;20444;-73
2021/07/07 06:36:34;;;;;;;4.20;2.43;;;18.40;1.00;;;;;;5031590;28;20505;-73
2021/07/07 06:39:00;;;;;;;7.17;2.13;;;18.50;1.00;;;;;;5027481;28;20577;-73
2021/07/07 06:41:26;;;;;;;8.00;2.77;;;18.60;1.00;;;;;;5042177;28;20793;-72
2021/07/07 06:43:51;;;;;;;8.07;2.30;;;18.50;1.00;;;;;;5032227;28;20710;-73
2021/07/07 06:46:17;;;;;;;3.53;2.40;;;18.40;1.00;;;;;;5041790;28;20202;-73
2021/07/07 06:48:43;;;;;;;8.53;2.20;;;18.30;1.00;;;;;;5044040;28;20537;-72
2021/07/07 06:51:08;;;;;;;12.80;2.70;;;18.30;1.00;;;;;;5055210;28;20197;-72
2021/07/07 06:53:34;;;;;;;5.33;1.97;;;18.30;1.00;;;;;;5046149;28;20184;-73
2021/07/07 06:55:59;;;;;;;6.93;2.10;;;18.40;1.00;;;;;;5049250;28;20224;-73
2021/07/07 06:58:25;;;;;;;5.20;1.90;;;18.40;1.00;;;;;;5042472;28;20477;-72
2021/07/07 07:00:51;;;;;;;5.23;1.93;;;18.50;1.00;;;;;;5047693;28;20179;-72
2021/07/07 07:03:16;;;;;;;4.70;1.97;;;18.50;1.00;;;;;;5042239;28;20187;-72
2021/07/07 07:05:42;;;;;;;19.20;2.77;;;18.40;1.00;;;;;;5056674;28;20247;-73
2021/07/07 07:08:12;;;;;;;4.10;2.27;;;18.50;1.00;;;;;;5051720;28;20617;-73
2021/07/07 07:10:38;;;;;;;8.00;2.40;;;18.60;1.00;;;;;;5039802;28;20170;-72
2021/07/07 07:13:04;;;;;;;5.80;2.37;;;18.50;1.00;;;;;;5050656;28;20442;-73
2021/07/07 07:15:30;;;;;;;8.23;2.50;;;18.50;1.00;;;;;;5043976;28;20448;-73
2021/07/07 07:17:55;;;;;;;3.07;1.90;;;18.50;1.00;;;;;;5048222;28;20557;-72
2021/07/07 07:20:25;;;;;;;9.03;2.47;;;18.60;1.00;;;;;;5043892;28;20687;-72
2021/07/07 07:22:51;;;;;;;7.80;2.47;;;18.70;1.00;;;;;;5049730;28;20283;-73
2021/07/07 07:25:16;;;;;;;6.73;2.77;;;18.80;1.00;;;;;;5027545;28;20461;-72
2021/07/07 07:27:42;;;;;;;9.30;2.93;;;18.80;1.00;;;;;;5023508;28;20823;-72
2021/07/07 07:30:09;;;;;;;4.43;2.33;;;18.90;1.00;;;;;;5042294;28;21434;-73
2021/07/07 07:32:35;;;;;;;9.87;2.80;;;18.90;1.00;;;;;;5043919;28;20184;-73
2021/07/07 07:35:00;;;;;;;8.60;2.10;;;19.00;1.00;;;;;;5062369;28;20834;-72
2021/07/07 07:37:37;;;;;;;8.67;2.33;;;19.00;1.00;;;;;;5046011;28;20712;-73
2021/07/07 07:40:10;;;;;;;5.87;2.00;;;19.30;1.00;;;;;;5056478;28;20186;-73
2021/07/07 07:42:41;;;;;;;8.07;2.10;;;19.40;1.00;;;;;;5050952;28;20440;-72
2021/07/07 07:45:09;;;;;;;6.23;2.40;;;19.30;1.00;;;;;;5052499;28;20942;-73
2021/07/07 07:47:34;;;;;;;4.40;1.90;;;19.40;1.00;;;;;;5057782;28;20477;-72
2021/07/07 07:50:00;;;;;;;3.80;1.97;;;19.50;1.00;;;;;;5049089;28;21001;-73
2021/07/07 07:52:26;;;;;;;4.10;2.13;;;19.40;1.00;;;;;;5039662;28;20197;-72
2021/07/07 07:54:51;;;;;;;4.57;2.30;;;19.50;1.00;;;;;;5043519;28;20234;-73
2021/07/07 07:57:17;;;;;;;8.20;3.30;;;19.50;1.00;;;;;;5056433;28;20179;-72
2021/07/07 07:59:42;;;;;;;5.23;2.00;;;19.20;1.00;;;;;;5058810;28;20193;-72
2021/07/07 08:02:08;;;;;;;4.57;2.00;;;19.10;1.00;;;;;;5053755;28;20186;-73
2021/07/07 08:04:34;;;;;;;6.53;2.73;;;19.30;1.00;;;;;;5060210;28;20202;-72
2021/07/07 08:06:59;;;;;;;4.00;2.13;;;19.50;1.00;;;;;;5052436;28;20199;-72
2021/07/07 08:09:25;;;;;;;7.33;2.00;;;19.60;1.00;;;;;;5052268;28;20207;-73
2021/07/07 08:11:51;;;;;;;5.07;2.57;;;19.80;1.00;;;;;;5059059;28;20269;-72
2021/07/07 08:14:17;;;;;;;6.00;2.27;;;19.90;1.00;;;;;;5054058;28;20711;-72
2021/07/07 08:16:43;;;;;;;5.43;2.00;;;20.10;1.00;;;;;;5058394;28;20437;-73
2021/07/07 08:19:08;;;;;;;9.73;2.60;;;20.10;1.00;;;;;;5050214;28;20193;-73
2021/07/07 08:21:34;;;;;;;7.27;2.50;;;20.20;1.00;;;;;;5047668;28;20898;-73
2021/07/07 08:24:02;;;;;;;4.87;1.90;;;20.30;1.00;;;;;;5056410;28;20184;-73
2021/07/07 08:26:28;;;;;;;4.77;2.50;;;20.60;1.00;;;;;;5047555;28;20272;-73
2021/07/07 08:28:57;;;;;;;8.43;2.30;;;20.70;1.00;;;;;;5052225;28;20472;-73
2021/07/07 08:31:27;;;;;;;8.10;4.73;;;20.90;1.00;;;;;;5054753;28;20630;-73
2021/07/07 08:33:54;;;;;;;5.53;3.10;;;20.80;1.00;;;;;;5045540;28;20488;-72
2021/07/07 08:36:25;;;;;;;8.23;2.40;;;20.90;1.00;;;;;;5046951;28;20465;-73
2021/07/07 08:38:51;;;;;;;4.80;2.27;;;21.00;1.00;;;;;;5050170;28;20437;-73
2021/07/07 08:41:16;;;;;;;7.23;2.47;;;21.10;1.00;;;;;;5049980;28;20463;-73
2021/07/07 08:43:45;;;;;;;8.40;3.43;;;21.00;1.00;;;;;;5061560;28;20185;-73
2021/07/07 08:46:11;;;;;;;9.63;2.00;;;21.10;1.00;;;;;;5057127;28;20289;-73
2021/07/07 08:48:37;;;;;;;7.70;2.40;;;21.10;1.00;;;;;;5054206;28;20466;-72
2021/07/07 08:51:04;;;;;;;6.20;2.43;;;21.10;1.00;;;;;;5062152;28;20463;-73
2021/07/07 08:53:31;;;;;;;6.17;1.80;;;21.10;1.00;;;;;;5056720;28;20272;-73
2021/07/07 08:55:57;;;;;;;8.00;2.30;;;21.30;1.00;;;;;;5057608;28;20901;-72
2021/07/07 08:58:24;;;;;;;12.30;2.10;;;21.10;1.00;;;;;;5055277;28;20460;-73
2021/07/07 09:00:51;;;;;;;4.80;2.47;;;21.20;1.00;;;;;;5055947;28;20443;-73
2021/07/07 09:03:20;;;;;;;4.50;2.10;;;21.30;1.00;;;;;;5061662;28;20202;-73
2021/07/07 09:05:57;;;;;;;3.97;2.27;;;21.40;1.00;;;;;;5055568;28;20456;-72
2021/07/07 09:08:31;;;;;;;6.20;2.40;;;21.40;1.00;;;;;;5051427;28;20517;-74
2021/07/07 09:11:24;;;;;;;4.70;2.80;;;21.40;1.00;;;;;;5058380;28;20500;-73
2021/07/07 09:14:11;;;;;;;8.67;2.30;;;21.50;1.00;;;;;;5058477;28;20443;-74
2021/07/07 09:17:02;;;;;;;8.40;2.00;;;21.60;1.00;;;;;;5053522;28;20449;-73
2021/07/07 09:19:32;;;;;;;8.00;2.23;;;21.30;1.00;;;;;;5053845;28;20754;-73
2021/07/07 09:22:07;;;;;;;6.73;2.97;;;21.00;1.00;;;;;;5046303;28;20488;-73
2021/07/07 09:24:34;;;;;;;4.20;1.90;;;21.00;1.00;;;;;;5055965;28;20973;-73
2021/07/07 09:27:12;;;;;;;5.53;2.37;;;21.30;1.00;;;;;;5055807;28;20480;-73
2021/07/07 09:29:46;;;;;;;4.63;2.30;;;21.60;1.00;;;;;;5056943;28;20501;-73
2021/07/07 09:32:22;;;;;;;5.60;1.77;;;21.80;1.00;;;;;;5053530;28;20442;-74
2021/07/07 09:34:51;;;;;;;3.30;1.93;;;21.90;1.00;;;;;;5035197;28;20455;-73
2021/07/07 09:37:23;;;;;;;11.33;2.40;;;21.90;1.00;;;;;;5028856;28;20870;-73
2021/07/07 09:39:49;;;;;;;7.03;2.30;;;22.10;1.00;;;;;;5041510;28;20486;-74
2021/07/07 09:42:22;;;;;;;4.47;1.90;;;21.80;1.00;;;;;;5047201;28;20437;-74
2021/07/07 09:44:48;;;;;;;5.83;2.53;;;21.90;1.00;;;;;;5050932;28;20472;-74
2021/07/07 09:47:14;;;;;;;4.33;1.80;;;22.30;1.00;;;;;;5039189;28;20515;-73
2021/07/07 09:49:44;;;;;;;5.23;1.67;;;22.40;1.00;;;;;;5035830;28;20934;-73
2021/07/07 09:52:09;;;;;;;4.47;1.60;;;22.50;1.00;;;;;;5044433;28;20476;-73
2021/07/07 09:54:35;;;;;;;7.37;2.20;;;22.70;1.00;;;;;;5042588;28;20443;-74
2021/07/07 09:57:00;;;;;;;8.30;2.20;;;23.00;1.00;;;;;;5052382;28;20189;-73
2021/07/07 09:59:26;;;;;;;4.60;2.07;;;23.00;1.00;;;;;;5057593;28;20742;-73
2021/07/07 10:01:52;;;;;;;6.90;1.70;;;23.00;1.00;;;;;;5048388;28;20194;-73
2021/07/07 10:04:18;;;;;;;4.37;1.80;;;22.70;1.00;;;;;;5038982;28;20289;-73
2021/07/07 10:06:46;;;;;;;4.10;2.10;;;22.20;1.00;;;;;;5047336;28;20971;-73
2021/07/07 10:09:11;;;;;;;5.73;2.00;;;21.80;1.00;;;;;;5050827;28;20469;-74
2021/07/07 10:11:38;;;;;;;4.10;1.70;;;21.40;1.00;;;;;;5062188;28;20521;-74
2021/07/07 10:14:07;;;;;;;5.93;2.70;;;21.40;1.00;;;;;;5058943;28;20568;-74
2021/07/07 10:16:33;;;;;;;3.47;1.57;;;21.90;1.00;;;;;;5052253;28;21305;-74
2021/07/07 10:18:59;;;;;;;5.83;1.80;;;21.90;1.00;;;;;;5059601;28;20842;-74
2021/07/07 10:21:25;;;;;;;6.00;2.10;;;21.90;1.00;;;;;;5056893;28;20544;-74
2021/07/07 10:23:51;;;;;;;4.80;2.10;;;21.60;1.00;;;;;;5058149;28;20437;-75
2021/07/07 10:26:18;;;;;;;4.37;2.13;;;21.70;1.00;;;;;;5062140;28;20194;-74
2021/07/07 10:28:45;;;;;;;5.53;1.90;;;21.70;1.00;;;;;;5051676;28;20567;-75
2021/07/07 10:31:10;;;;;;;10.63;2.50;;;21.60;1.00;;;;;;5058316;28;21032;-74
2021/07/07 10:33:37;;;;;;;9.33;2.47;;;21.70;1.00;;;;;;5052168;28;20532;-74
2021/07/07 10:36:17;;;;;;;6.40;2.30;;;22.10;1.00;;;;;;5059280;28;20221;-72
2021/07/07 10:38:57;;;;;;;6.93;2.13;;;22.50;1.00;;;;;;5057685;28;21064;-72
2021/07/07 10:41:41;;;;;;;7.10;2.30;;;22.90;1.00;;;;;;5053738;28;20460;-73
2021/07/07 10:44:08;;;;;;;5.90;2.33;;;22.70;1.00;;;;;;5052132;28;20437;-73
2021/07/07 10:47:01;;;;;;;5.40;1.80;;;22.30;1.00;;;;;;5051460;28;20536;-72
2021/07/07 10:49:47;;;;;;;3.70;2.00;;;22.00;1.00;;;;;;5053205;28;20572;-73
2021/07/07 10:52:16;;;;;;;6.50;1.80;;;21.90;1.00;;;;;;5048442;28;20803;-73
2021/07/07 10:54:57;;;;;;;7.97;2.27;;;21.90;1.00;;;;;;5045479;28;20960;-73
2021/07/07 10:57:24;;;;;;;14.27;2.57;;;21.90;1.00;;;;;;5051013;28;20436;-73
2021/07/07 10:59:56;;;;;;;5.43;2.50;;;21.70;1.00;;;;;;5049831;28;20471;-73
2021/07/07 11:02:25;;;;;;;5.00;2.10;;;21.60;1.00;;;;;;5049065;28;20449;-73
2021/07/07 11:05:02;;;;;;;9.70;2.20;;;21.40;1.00;;;;;;5056657;28;20459;-73
2021/07/07 11:07:32;;;;;;;10.20;1.90;;;21.30;1.00;;;;;;5051593;28;20961;-73
2021/07/07 11:10:17;;;;;;;4.50;2.03;;;21.60;1.00;;;;;;5045914;28;20445;-73
2021/07/07 11:12:43;;;;;;;5.03;2.30;;;21.70;1.00;;;;;;5048733;28;20449;-73
2021/07/07 11:15:15;;;;;;;4.70;2.00;;;21.40;1.00;;;;;;5044496;28;20551;-73
2021/07/07 11:17:42;;;;;;;7.93;2.20;;;21.20;1.00;;;;;;5046554;28;20178;-73
2021/07/07 11:20:13;;;;;;;3.97;2.77;;;21.20;1.00;;;;;;5047277;28;21046;-73
2021/07/07 11:22:42;;;;;;;5.10;2.10;;;21.00;1.00;;;;;;5044396;28;20463;-73
2021/07/07 11:25:11;;;;;;;4.57;2.33;;;21.00;1.00;;;;;;5056013;28;20494;-73
2021/07/07 11:27:37;;;;;;;8.73;2.40;;;21.10;1.00;;;;;;5038030;28;20829;-73
2021/07/07 11:30:06;;;;;;;6.57;2.80;;;21.80;1.00;;;;;;5048231;28;20441;-71
2021/07/07 11:32:36;;;;;;;5.13;2.37;;;22.00;1.00;;;;;;5027299;28;21079;-73
2021/07/07 11:35:11;;;;;;;9.03;2.33;;;22.00;1.00;;;;;;5036838;28;20529;-73
2021/07/07 11:37:37;;;;;;;8.40;2.77;;;21.90;1.00;;;;;;5047816;28;20877;-73
2021/07/07 11:40:17;;;;;;;9.67;2.37;;;22.00;1.00;;;;;;5050610;28;20454;-73
2021/07/07 11:42:52;;;;;;;7.03;2.77;;;22.20;1.00;;;;;;5049037;28;20563;-73
2021/07/07 11:45:22;;;;;;;8.10;2.80;;;22.20;1.00;;;;;;5047209;28;20513;-75
2021/07/07 11:48:05;;;;;;;5.97;2.33;;;22.20;1.00;;;;;;5035292;28;20659;-75
2021/07/07 11:50:31;;;;;;;5.97;2.07;;;22.00;1.00;;;;;;5034282;28;20481;-72
2021/07/07 11:52:59;;;;;;;4.60;2.50;;;22.00;1.00;;;;;;5039045;28;20917;-72
2021/07/07 11:55:57;;;;;;;4.43;2.30;;;22.40;1.00;;;;;;5037828;28;20193;-72
2021/07/07 11:58:44;;;;;;;10.43;2.10;;;22.50;1.00;;;;;;5040001;28;20484;-72
2021/07/07 12:01:19;;;;;;;3.10;1.67;;;23.00;1.00;;;;;;5031648;28;20449;-73
2021/07/07 12:04:02;;;;;;;3.80;2.27;;;23.40;1.00;;;;;;5041114;28;20465;-73
2021/07/07 12:06:30;;;;;;;5.10;1.87;;;23.20;1.00;;;;;;5029935;28;21120;-73
2021/07/07 12:08:56;;;;;;;4.43;1.80;;;22.80;1.00;;;;;;5023050;28;20488;-73
2021/07/07 12:11:23;;;;;;;3.70;1.80;;;22.50;1.00;;;;;;5047137;28;20449;-73
2021/07/07 12:13:50;;;;;;;5.90;1.67;;;22.40;1.00;;;;;;5051162;28;20453;-74
2021/07/07 12:16:33;;;;;;;3.90;1.97;;;22.40;1.00;;;;;;5035896;28;20484;-74
2021/07/07 12:19:07;;;;;;;6.13;2.17;;;22.70;1.00;;;;;;5051601;28;20454;-73
2021/07/07 12:21:39;;;;;;;6.37;1.83;;;22.30;1.00;;;;;;5027233;28;20468;-73
2021/07/07 12:24:07;;;;;;;4.47;2.07;;;22.10;1.00;;;;;;5041119;28;20449;-74
2021/07/07 12:26:39;;;;;;;10.27;2.40;;;22.10;1.00;;;;;;5052933;28;20811;-74
2021/07/07 12:29:06;;;;;;;8.10;2.87;;;22.60;1.00;;;;;;5044116;28;21179;-72
2021/07/07 12:31:36;;;;;;;3.63;2.30;;;23.20;1.00;;;;;;5045517;28;20449;-73
2021/07/07 12:34:02;;;;;;;4.73;2.13;;;23.30;1.00;;;;;;5047675;28;20444;-73
2021/07/07 12:36:30;;;;;;;5.30;1.97;;;22.90;1.00;;;;;;5056698;28;21804;-73
2021/07/07 12:38:58;;;;;;;5.50;2.93;;;22.50;1.00;;;;;;5041404;28;20488;-73
2021/07/07 12:41:38;;;;;;;6.13;2.70;;;22.80;1.00;;;;;;5035116;28;21288;-73
2021/07/07 12:44:12;;;;;;;4.93;2.63;;;23.10;1.00;;;;;;5046087;28;20450;-74
2021/07/07 12:47:03;;;;;;;2.73;1.90;;;23.00;1.00;;;;;;5047226;28;20452;-73
2021/07/07 12:49:43;;;;;;;4.53;2.30;;;22.70;1.00;;;;;;5053661;28;20866;-73
2021/07/07 12:52:33;;;;;;;4.13;1.93;;;23.00;1.00;;;;;;5037743;28;20457;-73
2021/07/07 12:55:23;;;;;;;2.30;1.40;;;23.30;1.00;;;;;;5045471;28;20996;-73
2021/07/07 12:58:01;;;;;;;4.07;2.70;;;23.50;1.00;;;;;;5036071;28;20959;-73
2021/07/07 13:00:39;;;;;;;3.43;2.20;;;23.70;1.00;;;;;;5048373;28;20643;-73